This is the latest recevied weather packets stored in our database for station/object SQ4LOL-9. If no packets are shown the sender has not sent any weather packets the latest 10 day(s).
| Time | Temp. | Humidity | Pressure | Rain* | Wind** | Luminosity | Snow |
|---|---|---|---|---|---|---|---|
| 1778159532 | 32.22° C | 43% | 994.1 hPa | - | - | - | - |
| 1778159526 | 32.22° C | 43% | 994.2 hPa | - | - | - | - |
| 1778159520 | 31.67° C | 44% | 994.2 hPa | - | - | - | - |
| 1778159513 | 31.67° C | 44% | 994.3 hPa | - | - | - | - |
| 1778159484 | 31.67° C | 44% | 994.4 hPa | - | - | - | - |
| 1778159467 | 31.67° C | 45% | 994.3 hPa | - | - | - | - |
| 1778159460 | 31.67° C | 45% | 994.4 hPa | - | - | - | - |
| 1778159447 | 31.11° C | 45% | 994.3 hPa | - | - | - | - |
| 1778159427 | 31.11° C | 45% | 994.4 hPa | - | - | - | - |
| 1778159407 | 31.11° C | 46% | 994.4 hPa | - | - | - | - |
| 1778159388 | 30.56° C | 46% | 994.4 hPa | - | - | - | - |
| 1778159381 | 30.56° C | 46% | 994.2 hPa | - | - | - | - |
| 1778159368 | 30.56° C | 46% | 994.1 hPa | - | - | - | - |
| 1778159356 | 30.56° C | 47% | 994.1 hPa | - | - | - | - |
| 1778159343 | 30° C | 47% | 994.1 hPa | - | - | - | - |
| 1778159290 | 29.44° C | 48% | 994 hPa | - | - | - | - |
| 1778145168 | 28.33° C | 36% | 991.3 hPa | - | - | - | - |
| 1778145162 | 27.78° C | 36% | 991.2 hPa | - | - | - | - |
| 1778145155 | 27.78° C | 36% | 991.1 hPa | - | - | - | - |
| 1778145149 | 27.78° C | 36% | 991 hPa | - | - | - | - |
| 1778145142 | 27.78° C | 37% | 990.9 hPa | - | - | - | - |
| 1778145136 | 27.78° C | 37% | 990.5 hPa | - | - | - | - |
| 1778145129 | 27.78° C | 37% | 990.2 hPa | - | - | - | - |
| 1778145122 | 27.78° C | 37% | 989.9 hPa | - | - | - | - |
| 1778145109 | 27.78° C | 37% | 989.6 hPa | - | - | - | - |
* Rain since midnight (hover to see other rain measurements)
** Current wind speed in m/s (hover to see current wind gust speed)